Share

Bogota, Colombia

3:21 AM COT on April 25, 2014 (GMT -0500)
Campin (IDCBOGOT3) Elev 8369 ft | 4.65 °N, 74.08 °W | Change Station

Current weather conditions updated 5 seconds ago

Partly Cloudy
Partly Cloudy
53.8 °F
Feels Like 53.8 °F
N
0.0
Wind Variable Wind from NNW
Gusts 1.6 mph
Sunrise 5:46 AM
Sunset 6:02 PM
Moon Waning Crescent

Today is forecast to be Cooler than yesterday. Scattered thunderstorms possible.

Pressure 30.28 in
Visibility 6.2 miles
Clouds Few 2000 ft
Dew Point 50 °F
Humidity 88%
Rainfall 0.00 in
Snow Depth Not available.
UV 0 out of 16
Pollen Not available.
Air Quality Not available.
Flu Activity Not available.
METAR SKBO 250800Z 06006KT 9999 FEW020 11/09 A3028

More Conditions Fewer Conditions

Pressure 30.28 in
Visibility 6.2 miles
Clouds Few 2000 ft
Dew Point 50 °F
Humidity 88%
Rainfall 0.00 in
Snow Depth Not available.
UV 0 out of 16
Pollen Not available.
Air Quality Not available.
Flu Activity Not available.
METAR SKBO 250800Z 06006KT 9999 FEW020 11/09 A3028

More Conditions Fewer Conditions

10-Day Weather Forecast

Almanac

Astronomy

Apr. 25, 2014 Rise Set
Actual Time 5:46 AM COT 6:02 PM COT
Civil Twilight 5:25 AM COT 6:23 PM COT
Nautical Twilight 5:00 AM COT 6:48 PM COT
Astronomical Twilight 4:35 AM COT 7:13 PM COT
Moon 2:42 AM COT 3:05 PM COT
Length of Visible Light 12h 58m
Length of Day
12h 15m
Tomorrow will be 0m 15s longer.
Waning Crescent, 18% of the Moon is Illuminated
Today
Waning Crescent
Apr 29
New
May 6
First Quarter
May 14
Full
May 21
Last Quarter

Yesterday's Extremes

Country Highs Country Lows

Community

  • Deer in evening light
    Deer in evening light
  • Critter
    Critter
  • Jone Runs Falls
    Jone Runs Falls
  • Easter in Shenandoah National Park
    Easter in Shenandoah National Park
  • Sunset at Apalachicola Bay, Florida
    Sunset at Apalachicola Bay, Florida

WunderPhotos

Upload Photos

1,704,874 photos uploaded!

WunderBlogs® & News

Nearby

Snow Depth

Not available.

Coastal Water Temperatures

Place Temperature
No Stations Reporting

Earthquake Activity

City Distance Mag. Time & Date
No recent earthquake activity has been reported nearby.
Minimum magnitude displayed is 2.5.

Nearby Weather Stations

Station Location Temp. Dew Point Humidity Wind Precip. Elev Updated Type
Campin, Bogota 53.8 °F 50 °F 88% NNW  at  0.0 mph 0.00 in / hr 8369 ft 3:21 AM COT Rapid Fire

Show More Stations Show Fewer Stations

What do you think?

We're not finished. Please let us know what you like, what you don't like, and what you are still missing.